sensor_id;sensor_type;location;lat;lon;timestamp;pressure;altitude;pressure_sealevel;temperature;humidity
7754;BME280;3921;42.266;23.122;2022-10-16T00:01:30;95975.19;;;11.63;64.72
7754;BME280;3921;42.266;23.122;2022-10-16T00:03:58;95931.69;;;11.25;64.25
7754;BME280;3921;42.266;23.122;2022-10-16T00:06:27;95790.16;;;10.39;64.64
7754;BME280;3921;42.266;23.122;2022-10-16T00:08:55;96001.22;;;11.61;65.19
7754;BME280;3921;42.266;23.122;2022-10-16T00:11:24;95982.78;;;11.40;65.01
7754;BME280;3921;42.266;23.122;2022-10-16T00:13:55;95914.09;;;11.05;64.92
7754;BME280;3921;42.266;23.122;2022-10-16T00:16:25;95776.69;;;10.01;65.25
7754;BME280;3921;42.266;23.122;2022-10-16T00:18:56;96106.94;;;12.11;65.91
7754;BME280;3921;42.266;23.122;2022-10-16T00:21:25;95783.41;;;10.22;66.09
7754;BME280;3921;42.266;23.122;2022-10-16T00:23:56;95988.66;;;11.55;65.68
7754;BME280;3921;42.266;23.122;2022-10-16T00:26:31;95789.31;;;10.33;65.39
7754;BME280;3921;42.266;23.122;2022-10-16T00:29:00;96212.63;;;12.72;65.70
7754;BME280;3921;42.266;23.122;2022-10-16T00:31:29;95829.50;;;10.47;65.88
7754;BME280;3921;42.266;23.122;2022-10-16T00:33:56;96146.38;;;12.28;65.58
7754;BME280;3921;42.266;23.122;2022-10-16T00:36:25;95824.47;;;10.47;65.10
7754;BME280;3921;42.266;23.122;2022-10-16T00:38:53;95933.34;;;11.06;64.92
7754;BME280;3921;42.266;23.122;2022-10-16T00:41:21;95945.09;;;11.04;64.72
7754;BME280;3921;42.266;23.122;2022-10-16T00:43:51;96171.56;;;12.34;64.93
7754;BME280;3921;42.266;23.122;2022-10-16T00:46:21;96110.28;;;12.13;65.12
7754;BME280;3921;42.266;23.122;2022-10-16T00:48:53;95866.34;;;10.47;64.33
7754;BME280;3921;42.266;23.122;2022-10-16T00:51:24;95840.34;;;10.22;64.54
7754;BME280;3921;42.266;23.122;2022-10-16T00:53:52;95802.66;;;10.06;63.94
7754;BME280;3921;42.266;23.122;2022-10-16T00:56:21;96097.72;;;11.55;64.30
7754;BME280;3921;42.266;23.122;2022-10-16T00:58:49;95855.34;;;10.02;64.87
7754;BME280;3921;42.266;23.122;2022-10-16T01:01:16;95870.44;;;10.11;64.54
7754;BME280;3921;42.266;23.122;2022-10-16T01:03:44;95882.16;;;10.09;65.16
7754;BME280;3921;42.266;23.122;2022-10-16T01:06:22;96321.03;;;12.89;65.54
7754;BME280;3921;42.266;23.122;2022-10-16T01:09:06;95819.34;;;9.81;64.54
7754;BME280;3921;42.266;23.122;2022-10-16T01:11:44;95946.75;;;10.53;64.74
7754;BME280;3921;42.266;23.122;2022-10-16T01:14:19;95872.91;;;9.96;65.08
7754;BME280;3921;42.266;23.122;2022-10-16T01:16:52;95840.28;;;9.90;65.17
7754;BME280;3921;42.266;23.122;2022-10-16T01:22:20;95820.13;;;9.68;65.28
7754;BME280;3921;42.266;23.122;2022-10-16T01:24:49;95837.69;;;9.62;65.77
7754;BME280;3921;42.266;23.122;2022-10-16T01:27:23;96343.75;;;12.77;65.68
7754;BME280;3921;42.266;23.122;2022-10-16T01:29:54;95842.75;;;9.71;65.94
7754;BME280;3921;42.266;23.122;2022-10-16T01:32:28;96122.00;;;11.35;66.17
7754;BME280;3921;42.266;23.122;2022-10-16T01:35:00;95851.97;;;9.77;65.83
7754;BME280;3921;42.266;23.122;2022-10-16T01:37:35;95880.41;;;9.85;65.94
7754;BME280;3921;42.266;23.122;2022-10-16T01:40:08;95987.81;;;10.56;65.52
7754;BME280;3921;42.266;23.122;2022-10-16T01:42:39;95824.31;;;9.66;65.81
7754;BME280;3921;42.266;23.122;2022-10-16T01:45:08;95903.00;;;9.85;66.01
7754;BME280;3921;42.266;23.122;2022-10-16T01:47:44;95868.72;;;9.81;65.88
7754;BME280;3921;42.266;23.122;2022-10-16T01:50:13;95877.00;;;9.68;66.43
7754;BME280;3921;42.266;23.122;2022-10-16T01:52:46;96369.81;;;12.62;67.01
7754;BME280;3921;42.266;23.122;2022-10-16T01:55:23;95890.38;;;9.67;67.05
7754;BME280;3921;42.266;23.122;2022-10-16T01:58:07;95884.53;;;9.68;67.21
7754;BME280;3921;42.266;23.122;2022-10-16T02:00:50;96337.06;;;12.62;66.78
7754;BME280;3921;42.266;23.122;2022-10-16T02:03:21;95869.47;;;9.66;66.93
7754;BME280;3921;42.266;23.122;2022-10-16T02:05:52;96001.13;;;10.35;67.53
7754;BME280;3921;42.266;23.122;2022-10-16T02:08:27;96356.38;;;12.62;67.42
7754;BME280;3921;42.266;23.122;2022-10-16T02:11:00;95823.34;;;9.24;67.07
7754;BME280;3921;42.266;23.122;2022-10-16T02:13:31;96090.09;;;10.97;67.22
7754;BME280;3921;42.266;23.122;2022-10-16T02:16:00;95826.72;;;9.36;66.85
7754;BME280;3921;42.266;23.122;2022-10-16T02:18:27;96149.69;;;11.30;67.89
7754;BME280;3921;42.266;23.122;2022-10-16T02:20:59;96335.38;;;12.44;67.12
7754;BME280;3921;42.266;23.122;2022-10-16T02:23:35;96057.34;;;10.65;67.34
7754;BME280;3921;42.266;23.122;2022-10-16T02:26:13;96250.50;;;11.82;66.63
7754;BME280;3921;42.266;23.122;2022-10-16T02:28:45;95966.59;;;9.92;66.97
7754;BME280;3921;42.266;23.122;2022-10-16T02:34:06;95983.31;;;9.83;66.47
7754;BME280;3921;42.266;23.122;2022-10-16T02:36:35;96089.97;;;10.53;67.14
7754;BME280;3921;42.266;23.122;2022-10-16T02:39:08;96087.47;;;10.56;66.85
7754;BME280;3921;42.266;23.122;2022-10-16T02:41:37;95943.91;;;9.64;67.21
7754;BME280;3921;42.266;23.122;2022-10-16T02:44:06;96011.03;;;10.06;66.92
7754;BME280;3921;42.266;23.122;2022-10-16T02:46:36;95904.44;;;9.32;66.49
7754;BME280;3921;42.266;23.122;2022-10-16T02:54:14;96078.16;;;10.36;67.59
7754;BME280;3921;42.266;23.122;2022-10-16T02:56:44;95919.50;;;9.40;67.01
7754;BME280;3921;42.266;23.122;2022-10-16T02:59:42;95849.97;;;9.07;67.22
7754;BME280;3921;42.266;23.122;2022-10-16T03:02:15;95901.13;;;9.35;67.25
7754;BME280;3921;42.266;23.122;2022-10-16T03:05:07;95886.88;;;9.29;66.46
7754;BME280;3921;42.266;23.122;2022-10-16T03:07:35;95872.69;;;9.36;66.87
7754;BME280;3921;42.266;23.122;2022-10-16T03:10:05;96042.19;;;10.41;67.33
7754;BME280;3921;42.266;23.122;2022-10-16T03:12:33;95965.75;;;9.85;67.11
7754;BME280;3921;42.266;23.122;2022-10-16T03:15:05;95860.94;;;9.24;67.04
7754;BME280;3921;42.266;23.122;2022-10-16T03:17:36;95808.09;;;8.88;66.70
7754;BME280;3921;42.266;23.122;2022-10-16T03:20:06;95890.25;;;9.39;66.20
7754;BME280;3921;42.266;23.122;2022-10-16T03:22:34;95886.88;;;9.29;66.29
7754;BME280;3921;42.266;23.122;2022-10-16T03:25:02;95870.97;;;9.26;65.72
7754;BME280;3921;42.266;23.122;2022-10-16T03:27:38;95944.78;;;9.69;65.87
7754;BME280;3921;42.266;23.122;2022-10-16T03:30:10;96000.16;;;10.04;64.73
7754;BME280;3921;42.266;23.122;2022-10-16T03:32:37;95873.47;;;9.26;64.80
7754;BME280;3921;42.266;23.122;2022-10-16T03:35:05;96057.13;;;10.18;64.89
7754;BME280;3921;42.266;23.122;2022-10-16T03:37:33;95884.38;;;9.29;64.29
7754;BME280;3921;42.266;23.122;2022-10-16T03:40:02;95957.22;;;9.54;64.67
7754;BME280;3921;42.266;23.122;2022-10-16T03:42:31;95981.63;;;9.82;64.89
7754;BME280;3921;42.266;23.122;2022-10-16T03:44:58;95887.72;;;9.30;64.73
7754;BME280;3921;42.266;23.122;2022-10-16T03:47:30;96383.22;;;12.26;64.16
7754;BME280;3921;42.266;23.122;2022-10-16T03:49:58;96178.97;;;11.04;64.04
7754;BME280;3921;42.266;23.122;2022-10-16T03:52:27;95875.78;;;8.92;63.98
7754;BME280;3921;42.266;23.122;2022-10-16T03:55:02;95974.91;;;9.69;63.75
7754;BME280;3921;42.266;23.122;2022-10-16T03:57:35;96119.31;;;10.66;64.07
7754;BME280;3921;42.266;23.122;2022-10-16T04:00:02;96038.59;;;9.97;64.69
7754;BME280;3921;42.266;23.122;2022-10-16T04:02:32;95944.59;;;9.39;64.94
7754;BME280;3921;42.266;23.122;2022-10-16T04:04:59;96009.28;;;9.87;63.76
7754;BME280;3921;42.266;23.122;2022-10-16T04:07:26;95913.53;;;9.12;64.35
7754;BME280;3921;42.266;23.122;2022-10-16T04:09:54;96075.44;;;10.00;64.07
7754;BME280;3921;42.266;23.122;2022-10-16T04:12:22;95909.28;;;9.03;63.72
7754;BME280;3921;42.266;23.122;2022-10-16T04:14:50;95969.59;;;9.25;63.86
7754;BME280;3921;42.266;23.122;2022-10-16T04:17:17;96200.56;;;10.57;64.03
7754;BME280;3921;42.266;23.122;2022-10-16T04:19:47;96231.63;;;10.73;64.30
7754;BME280;3921;42.266;23.122;2022-10-16T04:22:14;96012.31;;;9.40;63.55
7754;BME280;3921;42.266;23.122;2022-10-16T04:26:28;95917.34;;;8.67;64.17
7754;BME280;3921;42.266;23.122;2022-10-16T04:27:52;95893.91;;;8.59;65.22
7754;BME280;3921;42.266;23.122;2022-10-16T04:30:23;95849.31;;;8.24;65.07
7754;BME280;3921;42.266;23.122;2022-10-16T04:32:51;96377.13;;;11.60;65.51
7754;BME280;3921;42.266;23.122;2022-10-16T04:35:29;95876.25;;;8.45;65.29
7754;BME280;3921;42.266;23.122;2022-10-16T04:37:59;96386.31;;;11.58;65.28
7754;BME280;3921;42.266;23.122;2022-10-16T04:40:35;95890.28;;;8.31;65.18
7754;BME280;3921;42.266;23.122;2022-10-16T04:51:54;95890.34;;;8.36;65.83
7754;BME280;3921;42.266;23.122;2022-10-16T04:54:24;95904.50;;;8.34;65.83
7754;BME280;3921;42.266;23.122;2022-10-16T05:02:13;96399.69;;;11.44;66.49
7754;BME280;3921;42.266;23.122;2022-10-16T05:04:44;96424.84;;;11.41;65.83
7754;BME280;3921;42.266;23.122;2022-10-16T05:07:34;96053.75;;;8.95;65.75
7754;BME280;3921;42.266;23.122;2022-10-16T05:10:10;96065.66;;;9.22;65.94
7754;BME280;3921;42.266;23.122;2022-10-16T05:12:45;95841.34;;;7.76;66.38
7754;BME280;3921;42.266;23.122;2022-10-16T05:15:15;96116.16;;;9.61;66.27
7754;BME280;3921;42.266;23.122;2022-10-16T05:17:52;96432.41;;;11.44;66.74
7754;BME280;3921;42.266;23.122;2022-10-16T05:21:07;95936.16;;;8.29;66.15
7754;BME280;3921;42.266;23.122;2022-10-16T05:23:53;95879.78;;;7.81;65.69
7754;BME280;3921;42.266;23.122;2022-10-16T05:26:21;96060.66;;;9.19;66.01
7754;BME280;3921;42.266;23.122;2022-10-16T05:28:49;96115.25;;;9.51;65.70
7754;BME280;3921;42.266;23.122;2022-10-16T05:31:21;96120.34;;;9.60;65.56
7754;BME280;3921;42.266;23.122;2022-10-16T05:42:54;96429.72;;;11.20;64.95
7754;BME280;3921;42.266;23.122;2022-10-16T05:45:25;96245.91;;;9.69;65.73
7754;BME280;3921;42.266;23.122;2022-10-16T05:47:54;95970.06;;;8.01;65.93
7754;BME280;3921;42.266;23.122;2022-10-16T05:50:29;96464.78;;;10.99;67.21
7754;BME280;3921;42.266;23.122;2022-10-16T05:52:56;96106.50;;;9.08;66.84
7754;BME280;3921;42.266;23.122;2022-10-16T05:55:23;96280.53;;;10.07;66.47
7754;BME280;3921;42.266;23.122;2022-10-16T05:57:54;96400.81;;;10.66;67.44
7754;BME280;3921;42.266;23.122;2022-10-16T06:36:38;96483.66;;;11.62;71.57
7754;BME280;3921;42.266;23.122;2022-10-16T17:32:27;96356.28;;;14.87;52.21
7754;BME280;3921;42.266;23.122;2022-10-16T17:34:54;96363.16;;;14.71;52.79
7754;BME280;3921;42.266;23.122;2022-10-16T17:37:21;96583.97;;;16.08;52.24
7754;BME280;3921;42.266;23.122;2022-10-16T17:40:25;96182.78;;;13.63;52.23
7754;BME280;3921;42.266;23.122;2022-10-16T17:43:14;96378.38;;;14.68;52.55
7754;BME280;3921;42.266;23.122;2022-10-16T17:45:52;96228.22;;;13.72;52.71
7754;BME280;3921;42.266;23.122;2022-10-16T17:48:29;96300.25;;;14.28;52.75
7754;BME280;3921;42.266;23.122;2022-10-16T17:51:07;96067.22;;;12.79;52.42
7754;BME280;3921;42.266;23.122;2022-10-16T17:53:38;96560.72;;;15.65;52.73
7754;BME280;3921;42.266;23.122;2022-10-16T17:56:11;96106.72;;;12.77;53.03
7754;BME280;3921;42.266;23.122;2022-10-16T17:58:46;96328.94;;;14.23;53.52
7754;BME280;3921;42.266;23.122;2022-10-16T18:01:24;96634.84;;;15.91;53.40
7754;BME280;3921;42.266;23.122;2022-10-16T18:04:16;96534.78;;;15.31;53.35
7754;BME280;3921;42.266;23.122;2022-10-16T18:06:52;96562.59;;;15.40;53.52
7754;BME280;3921;42.266;23.122;2022-10-16T18:48:02;96290.75;;;13.00;54.37
7754;BME280;3921;42.266;23.122;2022-10-16T19:30:27;96251.34;;;12.30;52.78
7754;BME280;3921;42.266;23.122;2022-10-16T20:41:28;96382.28;;;11.87;55.25
7754;BME280;3921;42.266;23.122;2022-10-16T21:35:40;96354.19;;;11.08;56.25
7754;BME280;3921;42.266;23.122;2022-10-16T21:38:08;96498.13;;;11.92;56.16
7754;BME280;3921;42.266;23.122;2022-10-16T21:40:35;96349.13;;;11.02;56.01
7754;BME280;3921;42.266;23.122;2022-10-16T21:43:02;96649.72;;;12.73;55.37
7754;BME280;3921;42.266;23.122;2022-10-16T21:45:30;96390.13;;;10.95;55.81
7754;BME280;3921;42.266;23.122;2022-10-16T21:47:57;96400.31;;;11.10;56.67
7754;BME280;3921;42.266;23.122;2022-10-16T21:50:25;96561.16;;;12.03;57.15
7754;BME280;3921;42.266;23.122;2022-10-16T21:52:56;96708.59;;;12.73;57.15
7754;BME280;3921;42.266;23.122;2022-10-16T21:55:25;96320.06;;;10.26;57.95
7754;BME280;3921;42.266;23.122;2022-10-16T21:57:52;96702.50;;;12.42;58.55
7754;BME280;3921;42.266;23.122;2022-10-16T22:00:21;96301.63;;;10.24;58.42
7754;BME280;3921;42.266;23.122;2022-10-16T22:02:57;96401.69;;;10.68;58.37
7754;BME280;3921;42.266;23.122;2022-10-16T22:05:28;96369.75;;;10.59;58.53
7754;BME280;3921;42.266;23.122;2022-10-16T22:08:16;96322.25;;;9.94;58.39
7754;BME280;3921;42.266;23.122;2022-10-16T22:13:50;96401.53;;;10.50;58.63
7754;BME280;3921;42.266;23.122;2022-10-16T22:16:38;96528.72;;;11.25;59.16
7754;BME280;3921;42.266;23.122;2022-10-16T22:20:54;96423.31;;;10.51;59.38
7754;BME280;3921;42.266;23.122;2022-10-16T22:26:29;96449.28;;;10.50;59.48
7754;BME280;3921;42.266;23.122;2022-10-16T22:29:17;96429.91;;;10.40;59.47
7754;BME280;3921;42.266;23.122;2022-10-16T22:31:44;96590.19;;;11.55;59.47
7754;BME280;3921;42.266;23.122;2022-10-16T22:34:16;96522.50;;;10.89;59.51
7754;BME280;3921;42.266;23.122;2022-10-16T22:42:46;96494.44;;;10.47;59.64
7754;BME280;3921;42.266;23.122;2022-10-16T22:45:13;96454.13;;;10.33;59.79
7754;BME280;3921;42.266;23.122;2022-10-16T22:47:41;96438.09;;;10.23;59.89
7754;BME280;3921;42.266;23.122;2022-10-16T22:50:10;96782.28;;;12.37;59.74
7754;BME280;3921;42.266;23.122;2022-10-16T22:52:37;96908.94;;;13.12;59.84
7754;BME280;3921;42.266;23.122;2022-10-16T22:55:07;96368.16;;;9.82;59.58
7754;BME280;3921;42.266;23.122;2022-10-16T22:57:34;96680.03;;;11.62;59.41
7754;BME280;3921;42.266;23.122;2022-10-16T23:00:04;96470.78;;;10.26;58.68
7754;BME280;3921;42.266;23.122;2022-10-16T23:02:31;96375.22;;;9.44;58.83
7754;BME280;3921;42.266;23.122;2022-10-16T23:04:58;96630.16;;;11.20;59.07
7754;BME280;3921;42.266;23.122;2022-10-16T23:07:26;96634.34;;;11.22;59.26
7754;BME280;3921;42.266;23.122;2022-10-16T23:10:19;96705.25;;;11.68;59.12
7754;BME280;3921;42.266;23.122;2022-10-16T23:12:57;96796.16;;;11.92;59.44
7754;BME280;3921;42.266;23.122;2022-10-16T23:15:31;96930.69;;;12.93;58.97
7754;BME280;3921;42.266;23.122;2022-10-16T23:17:58;96529.63;;;10.47;58.85
7754;BME280;3921;42.266;23.122;2022-10-16T23:20:27;96953.38;;;12.92;59.04
7754;BME280;3921;42.266;23.122;2022-10-16T23:22:55;96489.97;;;10.21;59.12
7754;BME280;3921;42.266;23.122;2022-10-16T23:25:29;96509.31;;;10.27;58.99
7754;BME280;3921;42.266;23.122;2022-10-16T23:27:56;96542.97;;;10.43;59.38
7754;BME280;3921;42.266;23.122;2022-10-16T23:30:26;96970.94;;;12.80;59.41
7754;BME280;3921;42.266;23.122;2022-10-16T23:32:55;96758.91;;;11.61;59.50
7754;BME280;3921;42.266;23.122;2022-10-16T23:35:22;96750.97;;;11.26;59.29
7754;BME280;3921;42.266;23.122;2022-10-16T23:37:52;96498.69;;;9.82;59.22
7754;BME280;3921;42.266;23.122;2022-10-16T23:40:19;96470.00;;;9.65;59.32
7754;BME280;3921;42.266;23.122;2022-10-16T23:42:46;96658.97;;;10.73;59.15
7754;BME280;3921;42.266;23.122;2022-10-16T23:45:13;96638.78;;;10.69;59.34
7754;BME280;3921;42.266;23.122;2022-10-16T23:47:43;96648.16;;;10.82;58.68
7754;BME280;3921;42.266;23.122;2022-10-16T23:50:12;96729.28;;;11.38;58.69
7754;BME280;3921;42.266;23.122;2022-10-16T23:52:40;96556.22;;;10.28;58.36
7754;BME280;3921;42.266;23.122;2022-10-16T23:55:08;96477.78;;;9.83;58.11
7754;BME280;3921;42.266;23.122;2022-10-16T23:57:35;96462.56;;;9.73;57.70
